Time;durP1;ratioP1;P1;durP2;ratioP2;P2;SDS_P1;SDS_P2;PMS_P1;PMS_P2;Temp;Humidity;BMP_temperature;BMP_pressure;BME280_temperature;BME280_humidity;BME280_pressure;Samples;Min_cycle;Max_cycle;Signal;HPM_P1;HPM_P2
2022/01/25 00:15:55;;;;;;;67.20;29.98;;;3.60;99.90;;;;;;5073621;28;20214;-86
2022/01/25 00:33:29;;;;;;;66.90;29.17;;;3.60;99.90;;;;;;5067528;28;20117;-85
2022/01/25 00:35:55;;;;;;;63.28;29.50;;;3.60;99.90;;;;;;5082982;28;20044;-88
2022/01/25 00:38:21;;;;;;;;;;;3.80;99.90;;;;;;5049250;28;20109;-86
2022/01/25 00:40:46;;;;;;;57.38;26.85;;;3.70;99.90;;;;;;5047707;28;20347;-85
2022/01/25 00:43:12;;;;;;;65.68;28.80;;;3.50;99.90;;;;;;5057402;28;20040;-85
2022/01/25 00:45:38;;;;;;;63.13;28.48;;;3.60;99.90;;;;;;5072407;28;20039;-86
2022/01/25 00:48:06;;;;;;;65.20;28.02;;;3.60;99.90;;;;;;5049429;28;20032;-86
2022/01/25 00:50:38;;;;;;;61.83;27.45;;;3.50;99.90;;;;;;5066222;28;20044;-85
2022/01/25 00:55:32;;;;;;;66.57;28.75;;;3.40;99.90;;;;;;5062994;28;20044;-86
2022/01/25 00:57:59;;;;;;;65.22;26.92;;;3.40;99.90;;;;;;5039126;28;20087;-85
2022/01/25 01:00:26;;;;;;;69.38;29.20;;;3.40;99.90;;;;;;5054780;28;20679;-85
2022/01/25 01:02:53;;;;;;;69.30;29.67;;;3.30;99.90;;;;;;5043814;28;20486;-85
2022/01/25 01:05:19;;;;;;;67.95;28.98;;;3.40;99.90;;;;;;5070125;28;20036;-85
2022/01/25 01:07:45;;;;;;;;;;;3.40;99.90;;;;;;5055926;28;20048;-85
2022/01/25 01:10:17;;;;;;;62.50;27.52;;;3.90;99.90;;;;;;5074368;28;19916;-86
2022/01/25 01:15:56;;;;;;;70.20;29.55;;;3.60;99.90;;;;;;5040540;28;20063;-85
2022/01/25 01:32:06;;;;;;;60.85;26.42;;;3.40;99.90;;;;;;5054807;28;20044;-85
2022/01/25 01:51:20;;;;;;;66.03;27.73;;;3.50;99.90;;;;;;5039664;28;20601;-84
2022/01/25 01:53:46;;;;;;;64.95;27.50;;;3.40;99.90;;;;;;5049610;28;20040;-85
2022/01/25 01:56:12;;;;;;;69.63;28.90;;;3.40;99.90;;;;;;5074347;28;20044;-87
2022/01/25 01:58:39;;;;;;;65.05;26.80;;;3.50;99.90;;;;;;5058278;28;20040;-86
2022/01/25 02:01:08;;;;;;;76.40;28.30;;;3.40;99.90;;;;;;5074424;28;20044;-84
2022/01/25 02:03:35;;;;;;;67.65;28.00;;;3.30;99.90;;;;;;5069777;28;20372;-84
2022/01/25 02:06:01;;;;;;;67.10;27.05;;;3.70;99.90;;;;;;5036241;28;20526;-84
2022/01/25 02:08:26;;;;;;;64.20;26.67;;;3.30;99.90;;;;;;5073537;28;20123;-85
2022/01/25 02:10:52;;;;;;;66.60;26.73;;;3.40;99.90;;;;;;5070556;28;20532;-85
2022/01/25 02:13:18;;;;;;;64.20;26.77;;;3.30;99.90;;;;;;5073750;28;20043;-85
2022/01/25 02:15:46;;;;;;;65.95;27.75;;;3.30;99.90;;;;;;5039789;28;20042;-85
2022/01/25 02:23:37;;;;;;;71.93;29.10;;;3.70;99.90;;;;;;5074128;28;20070;-85
2022/01/25 02:26:03;;;;;;;;;;;3.30;99.90;;;;;;5071045;28;20040;-85
2022/01/25 02:28:34;;;;;;;73.18;28.05;;;3.20;99.90;;;;;;5057521;28;20006;-86
2022/01/25 02:31:02;;;;;;;69.25;27.13;;;3.20;99.90;;;;;;5073901;28;20470;-85
2022/01/25 02:33:28;;;;;;;73.82;28.33;;;3.30;99.90;;;;;;5040460;28;20125;-85
2022/01/25 02:35:55;;;;;;;;;;;4.00;99.90;;;;;;5058578;28;20035;-86
2022/01/25 02:38:25;;;;;;;70.57;26.95;;;3.20;99.90;;;;;;5061231;28;19916;-85
2022/01/25 02:40:52;;;;;;;68.20;28.23;;;3.90;99.90;;;;;;5061494;28;20128;-87
2022/01/25 02:43:20;;;;;;;74.60;31.17;;;3.20;99.90;;;;;;5061245;28;20130;-85
2022/01/25 02:46:06;;;;;;;68.53;29.05;;;3.20;99.90;;;;;;5045577;28;20055;-85
2022/01/25 02:48:50;;;;;;;75.53;30.17;;;3.60;99.90;;;;;;5057736;28;20127;-85
2022/01/25 02:51:16;;;;;;;73.80;29.75;;;3.20;99.90;;;;;;5074692;28;20047;-88
2022/01/25 02:53:42;;;;;;;68.70;29.73;;;3.20;99.90;;;;;;5043123;28;20136;-85
2022/01/25 02:56:07;;;;;;;75.18;30.42;;;3.20;99.90;;;;;;5044682;28;20134;-85
2022/01/25 02:58:33;;;;;;;67.75;27.25;;;3.60;99.90;;;;;;5077925;28;20040;-85
2022/01/25 03:00:59;;;;;;;69.40;29.13;;;3.20;99.90;;;;;;5077142;28;20106;-85
2022/01/25 03:03:24;;;;;;;67.97;27.90;;;3.20;99.90;;;;;;5061031;28;20040;-85
2022/01/25 03:05:50;;;;;;;72.05;27.73;;;3.90;99.90;;;;;;5077708;28;20032;-85
2022/01/25 03:08:17;;;;;;;69.53;28.08;;;3.30;99.90;;;;;;5077930;28;20057;-86
2022/01/25 03:10:46;;;;;;;71.85;29.92;;;3.20;99.90;;;;;;5060761;28;20106;-85
2022/01/25 03:13:20;;;;;;;76.95;29.52;;;3.50;99.90;;;;;;5061312;28;20036;-85
2022/01/25 03:18:39;;;;;;;67.30;26.75;;;3.20;99.90;;;;;;5057690;28;20452;-85
2022/01/25 03:23:44;;;;;;;71.53;29.70;;;3.20;99.90;;;;;;5057365;28;20360;-85
2022/01/25 03:26:10;;;;;;;70.72;30.75;;;3.20;99.90;;;;;;5040329;28;20036;-85
2022/01/25 03:28:36;;;;;;;74.28;30.55;;;3.20;99.90;;;;;;5056883;28;20044;-85
2022/01/25 03:31:02;;;;;;;72.18;28.83;;;3.10;99.90;;;;;;5056928;28;20036;-85
2022/01/25 03:33:27;;;;;;;69.95;29.25;;;3.20;99.90;;;;;;5023500;28;20096;-85
2022/01/25 03:35:53;;;;;;;71.85;29.73;;;3.20;99.90;;;;;;5057282;28;20057;-85
2022/01/25 03:38:19;;;;;;;69.07;28.67;;;3.20;99.90;;;;;;5057289;28;20040;-89
2022/01/25 03:40:45;;;;;;;70.60;30.23;;;3.20;99.90;;;;;;5069187;28;20094;-85
2022/01/25 03:43:13;;;;;;;70.43;29.30;;;3.40;99.90;;;;;;5077340;28;20067;-85
2022/01/25 03:45:42;;;;;;;62.53;25.67;;;3.80;99.90;;;;;;5042975;28;20044;-86
2022/01/25 03:50:39;;;;;;;70.13;29.27;;;3.30;99.90;;;;;;5076726;28;20393;-85
2022/01/25 03:53:06;;;;;;;68.75;27.23;;;3.30;99.90;;;;;;5077015;28;20420;-87
2022/01/25 03:55:32;;;;;;;68.53;28.27;;;3.20;99.90;;;;;;5059341;28;20044;-86
2022/01/25 03:57:58;;;;;;;67.35;27.00;;;3.30;99.90;;;;;;5059759;28;20052;-87
2022/01/25 04:00:23;;;;;;;64.95;28.05;;;3.40;99.90;;;;;;5059278;28;20043;-86
2022/01/25 04:02:55;;;;;;;70.32;28.90;;;3.90;99.90;;;;;;5076882;28;20123;-85
2022/01/25 04:05:32;;;;;;;70.80;28.88;;;3.20;99.90;;;;;;5060335;28;20075;-88
2022/01/25 04:07:58;;;;;;;73.45;28.88;;;3.20;99.90;;;;;;5059835;28;20085;-85
2022/01/25 04:10:24;;;;;;;66.35;26.77;;;3.20;99.90;;;;;;5059533;28;20147;-87
2022/01/25 04:12:49;;;;;;;69.03;27.05;;;3.50;99.90;;;;;;5043535;28;20044;-85
2022/01/25 04:15:15;;;;;;;68.22;26.90;;;3.30;99.90;;;;;;5042625;28;20047;-86
2022/01/25 04:17:45;;;;;;;67.45;26.73;;;3.20;99.90;;;;;;5059446;28;20044;-85
2022/01/25 04:20:33;;;;;;;62.70;24.83;;;3.20;99.90;;;;;;5076378;28;20044;-85
2022/01/25 04:25:43;;;;;;;69.88;27.92;;;3.30;99.90;;;;;;5074019;28;20535;-85
2022/01/25 04:28:08;;;;;;;70.10;27.30;;;4.00;99.90;;;;;;5074464;28;20040;-85
2022/01/25 04:30:34;;;;;;;69.13;27.40;;;3.60;99.90;;;;;;5074250;28;20493;-85
2022/01/25 04:33:04;;;;;;;64.97;27.27;;;3.50;99.90;;;;;;5075916;28;20040;-85
2022/01/25 04:49:21;;;;;;;65.20;28.17;;;3.20;99.90;;;;;;5061904;28;20082;-85
2022/01/25 04:51:52;;;;;;;69.22;28.15;;;3.20;99.90;;;;;;5061263;28;20129;-85
2022/01/25 04:54:45;;;;;;;65.07;26.85;;;3.90;99.90;;;;;;5059054;28;20060;-85
2022/01/25 04:57:33;;;;;;;71.10;27.75;;;3.20;99.90;;;;;;5075716;28;20040;-86
2022/01/25 05:02:49;;;;;;;69.45;26.77;;;3.50;99.90;;;;;;5074998;28;20040;-87
2022/01/25 05:05:21;;;;;;;75.68;27.15;;;3.40;99.90;;;;;;5059098;28;20048;-85
2022/01/25 05:10:14;;;;;;;76.10;28.42;;;3.20;99.90;;;;;;5075029;28;20132;-85
2022/01/25 05:15:37;;;;;;;73.13;27.98;;;3.20;99.90;;;;;;5075097;28;20375;-86
2022/01/25 05:18:17;;;;;;;72.18;28.85;;;3.30;99.90;;;;;;5055168;28;20049;-85
2022/01/25 05:23:27;;;;;;;73.18;29.05;;;3.20;99.90;;;;;;5055128;28;20115;-88
2022/01/25 05:25:53;;;;;;;69.20;28.13;;;3.70;99.90;;;;;;5054807;28;20044;-85
2022/01/25 05:33:34;;;;;;;70.65;29.40;;;3.20;99.90;;;;;;5583761;23;20062;-83
2022/01/25 05:36:00;;;;;;;63.67;25.85;;;3.20;99.90;;;;;;5034380;28;20052;-83
2022/01/25 05:38:26;;;;;;;74.53;28.50;;;3.40;99.90;;;;;;5034802;28;20127;-84
2022/01/25 05:41:02;;;;;;;72.63;29.38;;;3.20;99.90;;;;;;5034378;28;20056;-84
2022/01/25 05:46:10;;;;;;;71.10;29.10;;;3.20;99.90;;;;;;5033853;28;20487;-83
2022/01/25 05:48:37;;;;;;;74.30;29.95;;;3.20;99.90;;;;;;5019957;28;20045;-83
2022/01/25 05:51:02;;;;;;;76.13;28.52;;;3.20;99.90;;;;;;5034569;28;20041;-86
2022/01/25 05:53:28;;;;;;;73.53;29.13;;;3.20;99.90;;;;;;5018077;28;20044;-87
2022/01/25 05:55:54;;;;;;;73.50;28.02;;;3.20;99.90;;;;;;5001683;28;20502;-84
2022/01/25 05:58:20;;;;;;;75.40;30.77;;;3.20;99.90;;;;;;5034689;28;20098;-84
2022/01/25 06:00:46;;;;;;;;;;;3.20;99.90;;;;;;5018118;28;20057;-84
2022/01/25 06:03:12;;;;;;;74.60;29.20;;;3.20;99.90;;;;;;5002184;28;19925;-84
2022/01/25 06:05:38;;;;;;;72.10;28.42;;;3.20;99.90;;;;;;5001693;28;20084;-84
2022/01/25 06:08:04;;;;;;;76.05;30.42;;;3.20;99.90;;;;;;5018460;28;20045;-84
2022/01/25 06:10:31;;;;;;;68.45;27.80;;;3.20;99.90;;;;;;5034474;28;20542;-88
2022/01/25 06:12:56;;;;;;;76.53;29.15;;;3.20;99.90;;;;;;5022389;28;20041;-87
2022/01/25 06:15:22;;;;;;;72.78;28.83;;;3.60;99.90;;;;;;5038058;28;20055;-85
2022/01/25 06:17:49;;;;;;;71.80;27.45;;;3.20;99.90;;;;;;5038283;28;20075;-84
2022/01/25 06:20:15;;;;;;;74.97;29.17;;;3.20;99.90;;;;;;5038540;28;20483;-85
2022/01/25 06:22:41;;;;;;;73.55;28.52;;;3.40;99.90;;;;;;5038406;28;20437;-84
2022/01/25 06:25:07;;;;;;;75.50;28.25;;;4.10;99.90;;;;;;5038407;28;20075;-84
2022/01/25 06:27:33;;;;;;;80.55;29.13;;;3.20;99.90;;;;;;5022038;28;20045;-88
2022/01/25 06:29:59;;;;;;;75.22;29.52;;;3.20;99.90;;;;;;5031326;28;20176;-86
2022/01/25 06:32:24;;;;;;;75.85;28.48;;;3.20;99.90;;;;;;5036046;28;20048;-86
2022/01/25 06:34:50;;;;;;;66.68;27.70;;;3.20;99.90;;;;;;5019449;28;20052;-86
2022/01/25 06:37:16;;;;;;;74.63;27.60;;;3.20;99.90;;;;;;5020374;28;20098;-85
2022/01/25 06:39:42;;;;;;;74.55;29.10;;;3.20;99.90;;;;;;5036027;28;20053;-87
2022/01/25 06:42:08;;;;;;;74.40;30.13;;;3.50;99.90;;;;;;5027142;28;20534;-85
2022/01/25 06:44:36;;;;;;;76.03;28.85;;;3.20;99.90;;;;;;5012464;28;20053;-88
2022/01/25 06:47:02;;;;;;;73.15;28.27;;;3.20;99.90;;;;;;5030557;28;20057;-84
2022/01/25 06:49:27;;;;;;;;;;;3.20;99.90;;;;;;5018799;28;20045;-87
2022/01/25 06:51:53;;;;;;;77.80;29.55;;;3.20;99.90;;;;;;5016756;28;19932;-84
2022/01/25 06:54:19;;;;;;;79.05;30.83;;;3.20;99.90;;;;;;5036321;28;20045;-85
2022/01/25 06:56:44;;;;;;;73.70;29.33;;;3.20;99.90;;;;;;5035725;28;20053;-86
2022/01/25 06:59:10;;;;;;;70.00;27.17;;;3.20;99.90;;;;;;5035997;28;20084;-85
2022/01/25 07:01:36;;;;;;;68.45;28.52;;;3.20;99.90;;;;;;5018649;28;20386;-90
2022/01/25 07:04:02;;;;;;;67.88;28.15;;;3.20;99.90;;;;;;5033205;28;20056;-87
2022/01/25 07:06:28;;;;;;;77.78;29.33;;;3.20;99.90;;;;;;5002968;28;20136;-86
2022/01/25 07:08:54;;;;;;;69.18;28.23;;;3.20;99.90;;;;;;5018885;28;20045;-86
2022/01/25 07:11:20;;;;;;;72.93;29.00;;;3.70;99.90;;;;;;5035612;28;20091;-86
2022/01/25 07:13:47;;;;;;;69.72;28.60;;;3.20;99.90;;;;;;5004804;28;20050;-87
2022/01/25 07:16:13;;;;;;;68.03;28.08;;;3.80;99.90;;;;;;5027087;28;20045;-84
2022/01/25 07:18:39;;;;;;;72.95;29.42;;;3.20;99.90;;;;;;5037389;28;20041;-87
2022/01/25 07:21:06;;;;;;;75.97;29.88;;;3.20;99.90;;;;;;5037381;28;20043;-85
2022/01/25 07:23:32;;;;;;;71.47;28.52;;;3.20;99.90;;;;;;5027595;28;20050;-83
2022/01/25 07:25:58;;;;;;;73.05;27.90;;;3.20;99.90;;;;;;5017121;28;20051;-85
2022/01/25 07:28:23;;;;;;;79.07;29.55;;;3.20;99.90;;;;;;5031712;28;20483;-85
2022/01/25 07:30:49;;;;;;;68.88;29.60;;;3.20;99.90;;;;;;5020308;28;20057;-85
2022/01/25 07:33:15;;;;;;;75.10;29.50;;;3.50;99.90;;;;;;5036916;28;20057;-85
2022/01/25 07:35:42;;;;;;;74.53;28.85;;;3.20;99.90;;;;;;5036487;28;20444;-88
2022/01/25 07:38:08;;;;;;;;;;;3.40;99.90;;;;;;5021270;28;20055;-85
2022/01/25 07:40:35;;;;;;;78.55;29.10;;;3.20;99.90;;;;;;5020649;28;20337;-85
2022/01/25 07:43:02;;;;;;;69.85;26.95;;;3.80;99.90;;;;;;5036842;28;20135;-85
2022/01/25 07:45:34;;;;;;;74.00;29.55;;;3.50;99.90;;;;;;5019729;28;20048;-85
2022/01/25 07:48:00;;;;;;;73.40;29.27;;;3.20;99.90;;;;;;5036610;28;20486;-85
2022/01/25 07:50:26;;;;;;;;;;;3.20;99.90;;;;;;5021635;28;20049;-85
2022/01/25 07:52:54;;;;;;;72.88;27.60;;;3.40;99.90;;;;;;5016834;28;20430;-85
2022/01/25 07:55:19;;;;;;;72.18;26.98;;;3.20;99.90;;;;;;5000593;28;20191;-85
2022/01/25 07:57:45;;;;;;;74.07;28.95;;;3.20;99.90;;;;;;5023724;28;20080;-85
2022/01/25 08:00:12;;;;;;;72.68;28.70;;;3.20;99.90;;;;;;5020061;28;20225;-85
2022/01/25 08:02:37;;;;;;;72.10;28.23;;;3.20;99.90;;;;;;5019849;28;20059;-85
2022/01/25 08:05:03;;;;;;;73.82;28.85;;;3.40;99.90;;;;;;5036209;28;20179;-84
2022/01/25 08:07:29;;;;;;;76.53;27.92;;;3.20;99.90;;;;;;5003361;28;20075;-83
2022/01/25 08:09:55;;;;;;;74.18;27.58;;;3.10;99.90;;;;;;5035228;28;20091;-84
2022/01/25 08:12:20;;;;;;;72.93;28.48;;;3.10;99.90;;;;;;5019920;28;20500;-85
2022/01/25 08:14:46;;;;;;;79.45;29.40;;;3.20;99.90;;;;;;5035833;28;20067;-88
2022/01/25 08:17:12;;;;;;;81.13;29.90;;;3.20;99.90;;;;;;5018409;28;20041;-86
2022/01/25 08:19:38;;;;;;;78.80;29.38;;;3.20;99.90;;;;;;5038305;28;20053;-85
2022/01/25 08:22:05;;;;;;;76.93;29.55;;;3.20;99.90;;;;;;5047103;28;20191;-85
2022/01/25 08:24:30;;;;;;;83.95;29.75;;;3.70;99.90;;;;;;5041460;28;20120;-85
2022/01/25 08:26:56;;;;;;;78.85;29.38;;;3.20;99.90;;;;;;5035414;28;20456;-86
2022/01/25 08:29:22;;;;;;;80.25;29.67;;;3.20;99.90;;;;;;5048004;28;20048;-85
2022/01/25 08:31:47;;;;;;;79.07;30.63;;;3.20;99.90;;;;;;5030631;28;20128;-85
2022/01/25 08:34:13;;;;;;;80.47;28.98;;;3.30;99.90;;;;;;4985619;28;20435;-86
2022/01/25 08:36:40;;;;;;;74.32;27.95;;;3.30;99.90;;;;;;5010465;28;20057;-85
2022/01/25 08:39:06;;;;;;;77.25;28.75;;;3.30;99.90;;;;;;5026226;28;20045;-85
2022/01/25 08:41:33;;;;;;;75.43;28.23;;;3.40;99.90;;;;;;5033157;28;20041;-84
2022/01/25 08:43:59;;;;;;;78.10;29.25;;;3.30;99.90;;;;;;5032524;28;20617;-85
2022/01/25 08:46:25;;;;;;;71.72;28.35;;;3.30;99.90;;;;;;5043611;28;20094;-84
2022/01/25 08:48:51;;;;;;;72.03;27.42;;;3.40;99.90;;;;;;5037145;28;20123;-87
2022/01/25 08:51:17;;;;;;;;;;;3.40;99.90;;;;;;5049038;28;20045;-87
2022/01/25 08:53:43;;;;;;;67.13;26.55;;;3.70;99.90;;;;;;5025824;28;20314;-89
2022/01/25 08:56:09;;;;;;;75.80;28.95;;;3.30;99.90;;;;;;5017459;28;20045;-87
2022/01/25 08:58:35;;;;;;;79.82;29.27;;;3.40;99.90;;;;;;5017690;28;20487;-87
2022/01/25 09:01:02;;;;;;;74.22;27.90;;;4.00;99.90;;;;;;5031727;28;20041;-86
2022/01/25 09:03:28;;;;;;;76.78;28.17;;;4.10;99.90;;;;;;5034007;28;20053;-86
2022/01/25 09:05:54;;;;;;;78.03;27.58;;;3.40;99.90;;;;;;5033271;28;20544;-86
2022/01/25 09:08:22;;;;;;;72.07;27.08;;;3.40;99.90;;;;;;5017119;28;20103;-89
2022/01/25 09:10:57;;;;;;;77.18;29.30;;;3.40;99.90;;;;;;5049452;28;20051;-86
2022/01/25 09:13:23;;;;;;;71.82;26.95;;;3.40;99.90;;;;;;5025811;28;20041;-88
2022/01/25 09:15:49;;;;;;;75.43;29.38;;;3.60;99.90;;;;;;5010980;28;20075;-87
2022/01/25 09:18:15;;;;;;;72.95;27.63;;;3.40;99.90;;;;;;5005605;28;20410;-89
2022/01/25 09:20:41;;;;;;;70.18;27.60;;;3.40;99.90;;;;;;5051016;28;20047;-89
2022/01/25 09:23:07;;;;;;;78.45;28.42;;;3.40;99.90;;;;;;5021893;28;20629;-88
2022/01/25 09:25:33;;;;;;;68.90;26.27;;;3.80;99.90;;;;;;5028295;28;20047;-90
2022/01/25 09:28:00;;;;;;;74.25;27.70;;;3.40;99.90;;;;;;5017710;28;20052;-88
2022/01/25 09:30:26;;;;;;;76.15;27.20;;;3.50;99.90;;;;;;5031879;28;20033;-88
2022/01/25 09:32:52;;;;;;;;;;;3.90;99.90;;;;;;5027533;28;20100;-88
2022/01/25 09:35:18;;;;;;;73.10;28.60;;;3.40;99.90;;;;;;5031063;28;20449;-85
2022/01/25 09:37:44;;;;;;;71.22;26.92;;;3.40;99.90;;;;;;5026683;28;20050;-83
2022/01/25 09:40:12;;;;;;;65.15;25.92;;;3.70;99.90;;;;;;5011397;28;20045;-84
2022/01/25 09:42:38;;;;;;;74.63;27.33;;;3.50;99.90;;;;;;5016327;28;20460;-84
2022/01/25 09:45:04;;;;;;;;;;;3.50;99.90;;;;;;5014461;28;20074;-84
2022/01/25 09:47:30;;;;;;;73.27;28.57;;;3.50;99.90;;;;;;5024228;28;19921;-85
2022/01/25 09:49:56;;;;;;;71.03;27.20;;;3.80;99.90;;;;;;5041054;28;20045;-84
2022/01/25 09:52:23;;;;;;;73.13;27.25;;;3.50;99.90;;;;;;5027282;28;20049;-84
2022/01/25 09:54:54;;;;;;;71.18;26.67;;;3.70;99.90;;;;;;5015459;28;20054;-83
2022/01/25 09:57:20;;;;;;;77.93;28.88;;;3.60;99.90;;;;;;5032470;28;20053;-84
2022/01/25 09:59:46;;;;;;;70.40;26.83;;;3.50;99.90;;;;;;5027327;28;20072;-85
2022/01/25 10:02:34;;;;;;;70.60;25.98;;;3.50;99.90;;;;;;5010931;28;20049;-83
2022/01/25 10:05:21;;;;;;;71.00;26.45;;;4.20;99.90;;;;;;5038729;28;20048;-84
2022/01/25 10:07:58;;;;;;;72.72;26.33;;;3.50;99.90;;;;;;5035391;28;20484;-83
2022/01/25 10:10:26;;;;;;;72.50;27.05;;;3.50;99.90;;;;;;5046167;28;20387;-84
2022/01/25 10:12:55;;;;;;;75.85;28.33;;;3.50;99.90;;;;;;5032256;28;21412;-87
2022/01/25 10:15:26;;;;;;;72.43;27.50;;;3.60;99.90;;;;;;5039359;28;20048;-82
2022/01/25 10:17:52;;;;;;;69.38;26.00;;;3.50;99.90;;;;;;5027257;28;20111;-82
2022/01/25 10:20:30;;;;;;;71.85;27.60;;;3.50;99.90;;;;;;5005741;28;20136;-82
2022/01/25 10:22:59;;;;;;;68.38;25.08;;;3.50;99.90;;;;;;5036085;28;20099;-83
2022/01/25 10:25:34;;;;;;;72.55;25.40;;;3.50;99.90;;;;;;5019741;28;20107;-82
2022/01/25 10:28:03;;;;;;;72.22;24.67;;;3.60;99.90;;;;;;5033128;28;20072;-82
2022/01/25 10:30:38;;;;;;;64.93;24.67;;;3.60;99.90;;;;;;5022200;28;20219;-85
2022/01/25 10:33:17;;;;;;;66.80;24.95;;;3.60;99.90;;;;;;5031513;28;20128;-83
2022/01/25 10:35:43;;;;;;;73.53;25.58;;;3.60;99.90;;;;;;5030507;28;20052;-82
2022/01/25 10:38:28;;;;;;;69.18;25.27;;;3.60;99.90;;;;;;5032683;28;20041;-83
2022/01/25 10:40:56;;;;;;;67.13;25.35;;;3.60;99.90;;;;;;5020135;28;20455;-83
2022/01/25 10:43:25;;;;;;;74.93;27.17;;;3.60;99.90;;;;;;5025225;28;20498;-82
2022/01/25 10:46:25;;;;;;;68.88;24.83;;;3.60;99.90;;;;;;5023899;28;20399;-84
2022/01/25 10:49:09;;;;;;;68.72;25.08;;;3.60;99.90;;;;;;5002171;28;20090;-81
2022/01/25 10:51:34;;;;;;;68.00;25.30;;;3.60;99.90;;;;;;5020488;28;20403;-83
2022/01/25 10:54:05;;;;;;;65.75;24.77;;;3.60;99.90;;;;;;5030026;28;20044;-83
2022/01/25 10:56:54;;;;;;;69.97;26.15;;;3.70;99.90;;;;;;5034540;28;20053;-83
2022/01/25 10:59:33;;;;;;;65.55;24.52;;;3.70;99.90;;;;;;5037578;28;20060;-83
2022/01/25 11:02:05;;;;;;;70.30;25.42;;;4.00;99.90;;;;;;5037403;28;20072;-88
2022/01/25 11:04:38;;;;;;;71.13;25.23;;;3.70;99.90;;;;;;5037841;28;20044;-82
2022/01/25 11:07:10;;;;;;;74.15;26.27;;;3.70;99.90;;;;;;5037320;28;20052;-83
2022/01/25 11:09:41;;;;;;;73.50;26.48;;;3.70;99.90;;;;;;5034024;28;20685;-83
2022/01/25 11:12:11;;;;;;;75.95;27.38;;;3.70;99.90;;;;;;5033276;28;20505;-83
2022/01/25 11:14:50;;;;;;;80.05;27.15;;;3.70;99.90;;;;;;5029982;28;20051;-83
2022/01/25 11:17:15;;;;;;;71.03;26.65;;;3.70;99.90;;;;;;5033708;28;20045;-88
2022/01/25 11:19:42;;;;;;;77.50;27.83;;;4.10;99.90;;;;;;5017938;28;20063;-86
2022/01/25 11:22:11;;;;;;;;;;;3.80;99.90;;;;;;5008612;28;20126;-87
2022/01/25 11:24:41;;;;;;;67.25;24.52;;;4.00;99.90;;;;;;5050301;28;19921;-85
2022/01/25 11:27:07;;;;;;;74.10;25.08;;;3.80;99.90;;;;;;5028864;28;20041;-84
2022/01/25 11:29:36;;;;;;;66.22;24.08;;;3.80;99.90;;;;;;5032325;28;20071;-84
2022/01/25 11:32:10;;;;;;;67.45;25.77;;;4.10;99.90;;;;;;5035806;28;20496;-88
2022/01/25 11:34:38;;;;;;;68.65;25.00;;;3.90;99.90;;;;;;5036942;28;20056;-86
2022/01/25 11:37:07;;;;;;;70.07;25.65;;;3.90;99.90;;;;;;5036528;28;20065;-84
2022/01/25 11:39:33;;;;;;;68.85;24.90;;;3.90;99.90;;;;;;5020647;28;20088;-84
2022/01/25 11:42:06;;;;;;;73.80;27.08;;;4.10;99.90;;;;;;5000480;28;20045;-84
2022/01/25 11:44:32;;;;;;;68.97;26.30;;;3.90;99.90;;;;;;5016416;28;20071;-84
2022/01/25 11:47:20;;;;;;;68.55;24.33;;;3.80;99.90;;;;;;5023464;28;20041;-85
2022/01/25 11:49:54;;;;;;;73.43;26.90;;;4.00;99.90;;;;;;5019241;28;20080;-87
2022/01/25 11:52:24;;;;;;;67.72;25.42;;;3.90;99.90;;;;;;5026618;28;20079;-84
2022/01/25 11:54:52;;;;;;;72.35;26.08;;;3.90;99.90;;;;;;5047167;28;20048;-84
2022/01/25 11:57:24;;;;;;;72.75;24.65;;;3.90;99.90;;;;;;5046954;28;20441;-85
2022/01/25 11:59:59;;;;;;;71.68;26.10;;;4.00;99.90;;;;;;5037517;28;20460;-84
2022/01/25 12:02:41;;;;;;;73.38;25.02;;;3.90;99.90;;;;;;5044951;28;20131;-84
2022/01/25 12:05:10;;;;;;;73.50;26.25;;;3.90;99.90;;;;;;5046856;28;20049;-85
2022/01/25 12:07:40;;;;;;;77.00;26.67;;;3.90;99.90;;;;;;5041663;28;20053;-87
2022/01/25 12:10:31;;;;;;;72.50;25.55;;;3.90;99.90;;;;;;5054922;28;20040;-86
2022/01/25 12:13:17;;;;;;;68.03;23.90;;;3.90;99.90;;;;;;5056427;28;20409;-85
2022/01/25 12:15:44;;;;;;;64.93;23.33;;;3.90;99.90;;;;;;5047224;28;20045;-82
2022/01/25 12:18:49;;;;;;;71.22;25.60;;;4.30;99.90;;;;;;5019901;28;20045;-84
2022/01/25 12:21:15;;;;;;;72.35;24.00;;;3.90;99.90;;;;;;5016207;28;20052;-82
2022/01/25 12:23:46;;;;;;;70.32;25.23;;;3.90;99.90;;;;;;5011065;28;20046;-83
2022/01/25 12:26:18;;;;;;;66.50;24.75;;;3.90;99.90;;;;;;5018242;28;20118;-80
2022/01/25 12:28:46;;;;;;;68.00;24.42;;;3.90;99.90;;;;;;5013780;28;20047;-82
2022/01/25 12:31:17;;;;;;;68.82;23.52;;;4.10;99.90;;;;;;5026332;28;20052;-82
2022/01/25 12:33:45;;;;;;;65.63;22.42;;;4.30;99.90;;;;;;5018804;28;20053;-82
2022/01/25 12:36:11;;;;;;;66.72;24.42;;;3.90;99.90;;;;;;5036097;28;20096;-82
2022/01/25 12:38:46;;;;;;;62.33;23.13;;;4.40;99.90;;;;;;5036136;28;20056;-82
2022/01/25 12:41:13;;;;;;;65.13;23.08;;;4.40;99.90;;;;;;5019196;28;20052;-83
2022/01/25 12:43:40;;;;;;;64.05;23.20;;;3.90;99.90;;;;;;5036167;28;20049;-82
2022/01/25 12:46:12;;;;;;;70.85;25.52;;;4.20;99.90;;;;;;5035313;28;20091;-86
2022/01/25 12:48:47;;;;;;;66.63;24.25;;;3.90;99.90;;;;;;5032660;28;20044;-85
2022/01/25 12:51:15;;;;;;;68.80;24.63;;;4.00;99.90;;;;;;5016245;28;20589;-84
2022/01/25 12:53:44;;;;;;;70.65;26.52;;;3.90;99.90;;;;;;5016515;28;20128;-85
2022/01/25 12:56:16;;;;;;;68.78;24.58;;;3.90;99.90;;;;;;5030366;28;20048;-80
2022/01/25 12:58:43;;;;;;;62.15;22.95;;;3.90;99.90;;;;;;5028157;28;20068;-85
2022/01/25 13:01:19;;;;;;;70.45;25.70;;;3.90;99.90;;;;;;5031465;28;20141;-81
2022/01/25 13:03:49;;;;;;;69.65;25.05;;;3.90;99.90;;;;;;5033559;28;20048;-85
2022/01/25 13:06:22;;;;;;;76.15;26.77;;;3.90;99.90;;;;;;5031895;28;20041;-85
2022/01/25 13:09:04;;;;;;;66.05;24.92;;;3.90;99.90;;;;;;5069838;28;20052;-85
2022/01/25 13:17:05;;;;;;;63.40;23.38;;;3.90;99.90;;;;;;5013756;28;20406;-88
2022/01/25 13:19:40;;;;;;;70.15;23.27;;;3.90;99.90;;;;;;5032674;28;20052;-84
2022/01/25 13:22:13;;;;;;;67.25;23.70;;;3.90;99.90;;;;;;5012751;28;20128;-83
2022/01/25 13:24:49;;;;;;;67.70;25.08;;;4.40;99.90;;;;;;5013565;28;20373;-84
2022/01/25 13:27:17;;;;;;;72.25;26.15;;;3.90;99.90;;;;;;5012100;28;20507;-84
2022/01/25 13:32:39;;;;;;;68.20;23.17;;;3.90;99.90;;;;;;5030630;28;20060;-83
2022/01/25 13:35:31;;;;;;;72.57;26.20;;;3.90;99.90;;;;;;5032463;28;20098;-84
2022/01/25 13:38:16;;;;;;;70.72;25.17;;;3.90;99.90;;;;;;5017305;28;20753;-84
2022/01/25 13:46:07;;;;;;;64.65;24.63;;;3.90;99.90;;;;;;5027546;28;20079;-84
2022/01/25 13:48:35;;;;;;;72.50;24.98;;;3.90;99.90;;;;;;5022937;28;20056;-84
2022/01/25 13:51:07;;;;;;;71.75;25.98;;;4.00;99.90;;;;;;4997036;28;20137;-84
2022/01/25 13:53:35;;;;;;;63.28;23.05;;;3.80;99.90;;;;;;5012381;28;20084;-84
2022/01/25 13:56:02;;;;;;;65.82;25.50;;;3.80;99.90;;;;;;5036237;28;20048;-84
2022/01/25 13:58:33;;;;;;;65.93;25.88;;;3.80;99.90;;;;;;5017172;28;20447;-83
2022/01/25 14:01:02;;;;;;;72.07;24.30;;;3.80;99.90;;;;;;5011622;28;20053;-85
2022/01/25 14:03:37;;;;;;;73.55;25.05;;;3.80;99.90;;;;;;5018602;28;20597;-86
2022/01/25 14:06:24;;;;;;;64.55;22.80;;;3.80;99.90;;;;;;5032334;28;20120;-81
2022/01/25 14:08:51;;;;;;;65.38;23.55;;;3.80;99.90;;;;;;5016261;28;20052;-82
2022/01/25 14:11:28;;;;;;;68.50;24.65;;;3.80;99.90;;;;;;5031288;28;20488;-82
2022/01/25 14:22:31;;;;;;;64.00;24.58;;;3.80;99.90;;;;;;5013978;28;20053;-82
2022/01/25 14:24:57;;;;;;;65.40;25.10;;;3.70;99.90;;;;;;5023324;28;20057;-82
2022/01/25 14:27:27;;;;;;;64.20;22.98;;;3.70;99.90;;;;;;5039436;28;20049;-84
2022/01/25 14:29:54;;;;;;;66.90;23.95;;;3.70;99.90;;;;;;5020633;28;20053;-84
2022/01/25 14:33:01;;;;;;;65.45;24.33;;;3.70;99.90;;;;;;5010943;28;20057;-83
2022/01/25 14:35:27;;;;;;;63.60;22.17;;;3.70;99.90;;;;;;4998703;28;20045;-84
2022/01/25 14:37:53;;;;;;;74.38;24.13;;;3.70;99.90;;;;;;5029834;28;20061;-84
2022/01/25 14:40:19;;;;;;;70.68;24.60;;;3.70;99.90;;;;;;5035407;28;20051;-83
2022/01/25 14:42:47;;;;;;;73.35;26.10;;;3.70;99.90;;;;;;5035482;28;20136;-83
2022/01/25 14:45:20;;;;;;;69.13;23.80;;;3.70;99.90;;;;;;5031713;28;20434;-83
2022/01/25 14:47:48;;;;;;;70.40;25.38;;;3.70;99.90;;;;;;5025986;28;20053;-83
2022/01/25 14:50:21;;;;;;;70.93;23.75;;;4.10;99.90;;;;;;5030143;28;20518;-82
2022/01/25 14:53:08;;;;;;;76.22;25.55;;;3.70;99.90;;;;;;5004515;28;20099;-83
2022/01/25 14:55:36;;;;;;;76.00;25.98;;;3.70;99.90;;;;;;5015110;28;20369;-84
2022/01/25 15:00:55;;;;;;;62.58;22.77;;;3.70;99.90;;;;;;5014102;28;20502;-82
2022/01/25 15:03:22;;;;;;;67.20;23.00;;;3.70;99.90;;;;;;4984099;28;20046;-84
2022/01/25 15:05:49;;;;;;;74.97;24.38;;;4.00;99.90;;;;;;5033876;28;20045;-85
2022/01/25 15:08:21;;;;;;;68.75;24.15;;;3.60;99.90;;;;;;5035850;28;20056;-84
2022/01/25 15:10:47;;;;;;;70.68;24.52;;;3.60;99.90;;;;;;5035275;28;20434;-84